Hovedside
METAR-TAF:

METAR-TAF

Lufthavner :

Örebro, Sverige

breddegrad: 59-14N, lengdegrad: 015-03E, høyde over havet: 57 m

Gjeldene værobservasjon

Denne rapporten ble laget for 30 minutter siden, klokken 04:20 UTC
Vind 9 kt fra Sør-sørvest
Temperatur 6°C
Luftfuktighet 87%
Trykk 1013 hPa
Sikt 10 km eller mer
Overskyet i en høyde av 900 ft

METAR: ESOE 220420Z 21009KT 9999 OVC009 06/04 Q1013

Tid: 06:50 (04:50 UTC)

Varsel

Denne rapporten ble laget for 2 timer og 20 minutter siden, klokken 02:30 UTC
Varsel gyldig fra 22. klokken 03 UTC til 22. klokken 12 UTC
Vind 12 kt fra Sørvest
Sikt 10 km eller mer
Brutte skyer i en høyde av 1500 ft
Midlertidig
fra 22. klokken 03 UTC til 22. klokken 06 UTC
Brutte skyer i en høyde av 900 ft
Blir
fra 22. klokken 07 UTC til 22. klokken 09 UTC
Vind 15 kt fra Vest-sørvest med vindkast opp mot 25 kt

TAF: ESOE 220230Z 2203/2212 23012KT 9999 BKN015 TEMPO 2203/2206 BKN009 BECMG 2207/2209 24015G25KT

Værobservasjoner og værvarsel for over 4000 flyplasser (METAR- og TAF-rapporter).

Tilgjengelige stasjoner er representert av de røde og gule prikkene på kartet.

Hold musepekeren over prikken for å se navnet på stasjonen.

Klikk så for å se værobservasjoner og -varsler.

For å forandre kartet kan du klikke på den grønne knappen med svart kryss for å zoome inn, på den grønne knappen med strek for å zoome ut, eller på de grønne pilene for å se tilstøtende kart.


METAR-TAF: